Time;durP1;ratioP1;P1;durP2;ratioP2;P2;SDS_P1;SDS_P2;PMS_P1;PMS_P2;Temp;Humidity;BMP_temperature;BMP_pressure;BME280_temperature;BME280_humidity;BME280_pressure;Samples;Min_cycle;Max_cycle;Signal;HPM_P1;HPM_P2
2021/12/15 00:54:10;;;;;;;127.20;41.95;;;;;;;9.12;100.00;102774.06;2613003;36;20415;-60
2021/12/15 00:56:39;;;;;;;135.15;44.60;;;;;;;9.13;100.00;102773.13;2612120;36;20034;-60
2021/12/15 00:59:09;;;;;;;141.65;44.75;;;;;;;9.11;100.00;102769.63;2612826;36;20038;-60
2021/12/15 01:01:39;;;;;;;132.32;43.15;;;;;;;9.10;100.00;102770.59;2612291;36;20089;-60
2021/12/15 01:04:09;;;;;;;137.77;44.30;;;;;;;9.12;100.00;102768.69;2613178;36;20129;-61
2021/12/15 01:06:39;;;;;;;123.60;44.10;;;;;;;9.14;100.00;102777.53;2612849;31;20480;-61
2021/12/15 01:09:18;;;;;;;134.30;46.97;;;;;;;9.18;100.00;102767.50;2612990;36;20034;-61
2021/12/15 01:12:10;;;;;;;;;;;;;;;9.19;100.00;102771.94;2613701;36;20064;-61
2021/12/15 01:20:09;;;;;;;135.05;44.63;;;;;;;9.09;100.00;102777.75;2614031;31;20041;-61
2021/12/15 01:22:44;;;;;;;123.60;44.00;;;;;;;9.10;100.00;102768.75;2614014;36;20174;-61
2021/12/15 01:25:18;;;;;;;125.93;43.53;;;;;;;9.10;100.00;102763.41;2614336;36;20114;-61
2021/12/15 01:27:46;;;;;;;137.00;46.35;;;;;;;9.11;100.00;102759.78;2613738;36;20670;-61
2021/12/15 01:30:19;;;;;;;130.52;48.45;;;;;;;9.10;100.00;102759.84;2614244;36;20147;-61
2021/12/15 01:32:47;;;;;;;138.32;47.08;;;;;;;9.10;100.00;102763.41;2613311;36;20061;-61
2021/12/15 01:35:17;;;;;;;139.05;45.90;;;;;;;9.14;100.00;102773.97;2613979;36;20570;-61
2021/12/15 01:37:46;;;;;;;;;;;;;;;9.11;100.00;102770.50;2614631;36;20633;-61
2021/12/15 01:40:27;;;;;;;148.90;49.53;;;;;;;9.18;100.00;102776.41;2614778;36;19954;-62
2021/12/15 01:42:56;;;;;;;134.98;48.60;;;;;;;9.09;100.00;102777.75;2613971;36;20146;-61
2021/12/15 01:48:07;;;;;;;155.68;53.50;;;;;;;9.06;100.00;102780.63;2613196;31;20038;-61
2021/12/15 01:50:36;;;;;;;142.13;49.47;;;;;;;9.08;100.00;102784.09;2613417;36;20133;-61
2021/12/15 01:53:06;;;;;;;148.63;51.63;;;;;;;9.12;100.00;102785.66;2612735;36;20539;-62
2021/12/15 01:55:36;;;;;;;137.13;51.20;;;;;;;9.08;100.00;102784.09;2614525;36;20159;-61
2021/12/15 01:58:05;;;;;;;149.35;51.60;;;;;;;9.13;100.00;102794.59;2613712;31;20117;-61
2021/12/15 02:00:38;;;;;;;134.45;50.50;;;;;;;9.10;100.00;102786.72;2615989;31;20499;-62
2021/12/15 02:03:07;;;;;;;139.93;50.40;;;;;;;9.05;100.00;102781.53;2613802;36;20042;-61
2021/12/15 02:05:36;;;;;;;136.85;50.60;;;;;;;9.11;100.00;102785.75;2614790;36;20580;-61
2021/12/15 02:08:07;;;;;;;149.02;55.25;;;;;;;9.14;100.00;102790.09;2614415;36;20115;-61
2021/12/15 02:10:40;;;;;;;146.52;52.25;;;;;;;9.16;100.00;102793.56;2614378;36;20057;-61
2021/12/15 02:13:12;;;;;;;151.43;54.55;;;;;;;9.17;100.00;102790.81;2614560;36;20034;-61
2021/12/15 02:15:45;;;;;;;135.63;49.63;;;;;;;9.17;100.00;102789.94;2614381;36;20153;-61
2021/12/15 02:18:18;;;;;;;136.95;54.08;;;;;;;9.12;100.00;102793.72;2614766;36;20053;-61
2021/12/15 02:20:52;;;;;;;153.35;54.78;;;;;;;9.11;100.00;102792.00;2613818;36;20042;-61
2021/12/15 02:23:27;;;;;;;142.00;56.70;;;;;;;9.08;100.00;102791.28;2615861;31;20517;-61
2021/12/15 02:25:55;;;;;;;135.98;52.13;;;;;;;9.07;100.00;102786.88;2614075;36;20022;-60
2021/12/15 02:28:24;;;;;;;136.68;52.40;;;;;;;9.03;100.00;102791.50;2614766;36;20564;-61
2021/12/15 02:30:57;;;;;;;160.15;54.50;;;;;;;9.07;100.00;102795.78;2613831;36;20167;-61
2021/12/15 02:33:51;;;;;;;155.20;53.97;;;;;;;9.02;100.00;102797.81;2614557;36;20041;-61
2021/12/15 02:39:07;;;;;;;141.50;52.58;;;;;;;9.01;100.00;102797.91;2614441;36;20547;-61
2021/12/15 02:41:38;;;;;;;145.25;53.40;;;;;;;9.00;100.00;102794.38;2614220;36;20427;-61
2021/12/15 02:44:11;;;;;;;144.90;55.20;;;;;;;9.05;100.00;102786.06;2613558;31;20150;-61
2021/12/15 02:46:40;;;;;;;136.90;53.03;;;;;;;8.99;100.00;102799.81;2614187;36;20170;-61
2021/12/15 02:49:11;;;;;;;142.60;55.25;;;;;;;9.00;100.00;102798.88;2615683;31;20520;-61
2021/12/15 02:51:44;;;;;;;137.05;54.30;;;;;;;9.01;100.00;102795.22;2613329;36;20163;-61
2021/12/15 02:54:14;;;;;;;138.77;53.50;;;;;;;9.05;100.00;102800.34;2613944;36;20133;-61
2021/12/15 02:56:44;;;;;;;140.00;57.60;;;;;;;9.03;100.00;102791.50;2614588;31;20050;-61
2021/12/15 02:59:16;;;;;;;138.20;56.17;;;;;;;9.00;100.00;102783.63;2614601;36;20084;-61
2021/12/15 03:02:00;;;;;;;143.93;54.58;;;;;;;9.00;100.00;102790.81;2615166;31;20543;-61
2021/12/15 03:04:39;;;;;;;136.52;53.65;;;;;;;8.98;100.00;102792.69;2614129;36;20035;-61
2021/12/15 03:07:28;;;;;;;137.20;52.10;;;;;;;9.02;100.00;102796.97;2613822;36;20042;-61
2021/12/15 03:15:29;;;;;;;136.90;54.70;;;;;;;8.94;100.00;102795.53;2613984;36;20041;-61
2021/12/15 03:17:59;;;;;;;136.55;53.55;;;;;;;8.94;100.00;102790.16;2614915;31;20038;-61
2021/12/15 03:20:30;;;;;;;143.38;58.17;;;;;;;8.92;100.00;102796.56;2613943;36;20660;-61
2021/12/15 03:23:01;;;;;;;147.98;57.08;;;;;;;8.94;100.00;102800.06;2614201;36;20023;-61
2021/12/15 03:25:31;;;;;;;133.93;54.17;;;;;;;8.96;100.00;102795.47;2614639;36;20035;-62
2021/12/15 03:33:55;;;;;;;137.23;56.40;;;;;;;8.91;100.00;102786.78;2613924;36;20031;-61
2021/12/15 03:36:37;;;;;;;138.52;55.00;;;;;;;8.91;100.00;102787.63;2614579;31;20038;-61
2021/12/15 03:39:12;;;;;;;140.23;55.25;;;;;;;8.91;100.00;102794.84;2614495;36;20034;-61
2021/12/15 03:41:41;;;;;;;130.88;52.80;;;;;;;8.92;100.00;102809.97;2614984;36;20526;-61
2021/12/15 03:44:10;;;;;;;130.80;53.43;;;;;;;8.89;100.00;102802.97;2614466;36;20470;-61
2021/12/15 03:46:39;;;;;;;129.50;53.75;;;;;;;8.94;100.00;102795.53;2614406;36;20316;-61
2021/12/15 03:49:07;;;;;;;131.32;51.60;;;;;;;8.94;100.00;102800.06;2614120;36;20114;-61
2021/12/15 03:51:36;;;;;;;128.70;51.80;;;;;;;8.90;100.00;102798.47;2613911;36;20141;-61
2021/12/15 03:54:05;;;;;;;142.82;55.38;;;;;;;8.87;100.00;102799.47;2613885;36;20041;-62
2021/12/15 03:56:39;;;;;;;122.35;50.75;;;;;;;8.86;100.00;102808.50;2614755;36;20133;-61
2021/12/15 03:59:09;;;;;;;121.93;50.40;;;;;;;8.90;100.00;102799.31;2614102;36;20473;-61
2021/12/15 04:01:37;;;;;;;122.05;52.25;;;;;;;8.87;100.00;102801.31;2613969;36;20035;-62
2021/12/15 04:04:06;;;;;;;128.00;55.60;;;;;;;8.84;100.00;102810.38;2613825;36;20030;-61
2021/12/15 04:06:38;;;;;;;129.80;52.55;;;;;;;8.84;100.00;102807.69;2614980;36;20412;-62
2021/12/15 04:09:09;;;;;;;123.00;51.33;;;;;;;8.87;100.00;102809.34;2614006;36;20154;-62
2021/12/15 04:11:40;;;;;;;129.85;53.08;;;;;;;8.87;100.00;102804.84;2614093;36;20526;-61
2021/12/15 04:14:11;;;;;;;119.95;51.58;;;;;;;8.90;100.00;102806.53;2613166;36;20098;-61
2021/12/15 04:16:57;;;;;;;123.60;51.95;;;;;;;8.86;100.00;102808.50;2615133;31;20065;-61
2021/12/15 04:19:26;;;;;;;123.32;51.17;;;;;;;8.84;100.00;102815.75;2613641;36;21762;-61
2021/12/15 04:21:54;;;;;;;125.22;52.67;;;;;;;8.89;100.00;102818.19;2613897;36;20042;-62
2021/12/15 04:24:25;;;;;;;120.38;51.50;;;;;;;8.83;100.00;102818.50;2613604;36;20086;-62
2021/12/15 04:26:58;;;;;;;128.60;55.38;;;;;;;8.82;100.00;102819.44;2614624;36;20026;-62
2021/12/15 04:29:27;;;;;;;126.32;52.85;;;;;;;8.83;100.00;102815.81;2613124;36;20138;-61
2021/12/15 04:32:02;;;;;;;128.85;54.78;;;;;;;8.81;100.00;102823.09;2614691;36;20566;-62
2021/12/15 04:34:30;;;;;;;118.22;49.72;;;;;;;8.90;100.00;102817.25;2613573;36;20081;-61
2021/12/15 04:36:58;;;;;;;118.05;51.70;;;;;;;8.88;100.00;102816.47;2614664;36;20678;-61
2021/12/15 04:39:30;;;;;;;132.02;54.78;;;;;;;8.85;100.00;102821.97;2613599;36;20057;-61
2021/12/15 04:42:01;;;;;;;120.57;51.17;;;;;;;8.86;100.00;102823.72;2614378;36;20186;-61
2021/12/15 04:44:32;;;;;;;119.70;51.83;;;;;;;8.92;100.00;102823.41;2613648;31;20585;-61
2021/12/15 04:47:05;;;;;;;115.95;51.13;;;;;;;8.90;100.00;102833.38;2614209;36;20122;-61
2021/12/15 04:49:37;;;;;;;113.05;48.58;;;;;;;8.97;100.00;102829.44;2614106;36;20034;-61
2021/12/15 04:52:07;;;;;;;121.07;51.00;;;;;;;8.98;100.00;102832.97;2613706;36;22501;-61
2021/12/15 04:54:35;;;;;;;115.70;50.33;;;;;;;8.99;100.00;102840.09;2614323;36;20038;-62
2021/12/15 04:57:06;;;;;;;117.77;51.10;;;;;;;8.98;100.00;102828.50;2614277;31;20134;-61
2021/12/15 04:59:35;;;;;;;110.43;48.47;;;;;;;8.98;100.00;102828.50;2614108;31;20035;-62
2021/12/15 05:02:05;;;;;;;113.63;48.13;;;;;;;8.97;100.00;102832.13;2614467;31;20057;-62
2021/12/15 05:04:33;;;;;;;118.47;49.78;;;;;;;8.93;100.00;102828.69;2614449;31;20042;-62
2021/12/15 05:07:01;;;;;;;115.57;48.33;;;;;;;8.94;100.00;102834.97;2614331;36;20643;-62
2021/12/15 05:09:30;;;;;;;113.03;50.03;;;;;;;8.92;100.00;102834.16;2614399;36;20539;-62
2021/12/15 05:11:58;;;;;;;112.70;48.90;;;;;;;8.94;100.00;102826.91;2614199;36;20034;-62
2021/12/15 05:14:29;;;;;;;114.95;47.55;;;;;;;8.93;100.00;102835.91;2613906;36;20078;-62
2021/12/15 05:16:58;;;;;;;116.13;47.03;;;;;;;8.94;100.00;102832.28;2614030;36;20093;-62
2021/12/15 05:19:27;;;;;;;119.13;49.20;;;;;;;8.96;100.00;102841.13;2614066;36;20109;-62
2021/12/15 05:21:58;;;;;;;117.15;46.97;;;;;;;9.00;100.00;102841.84;2612634;36;20062;-62
2021/12/15 05:24:32;;;;;;;125.05;48.65;;;;;;;9.02;100.00;102840.81;2614605;31;20034;-62
2021/12/15 05:27:05;;;;;;;128.13;48.10;;;;;;;8.97;100.00;102836.63;2613766;36;20038;-62
2021/12/15 05:29:36;;;;;;;113.70;46.75;;;;;;;8.99;100.00;102843.66;2614341;36;20038;-62
2021/12/15 05:32:06;;;;;;;125.65;48.13;;;;;;;9.01;100.00;102848.94;2613505;36;20158;-62
2021/12/15 05:34:35;;;;;;;117.95;46.63;;;;;;;9.03;100.00;102847.06;2614205;36;20121;-62
2021/12/15 05:37:03;;;;;;;131.87;49.23;;;;;;;9.03;100.00;102847.91;2614001;31;20030;-62
2021/12/15 05:39:32;;;;;;;122.78;46.13;;;;;;;8.99;100.00;102846.31;2614061;36;20038;-62
2021/12/15 05:42:00;;;;;;;122.55;50.28;;;;;;;9.00;100.00;102845.41;2613965;36;20574;-62
2021/12/15 05:44:30;;;;;;;114.53;44.05;;;;;;;9.07;100.00;102843.28;2613948;36;20157;-62
2021/12/15 05:47:03;;;;;;;109.22;45.97;;;;;;;9.01;100.00;102849.81;2614098;36;20140;-62
2021/12/15 05:49:32;;;;;;;124.25;45.78;;;;;;;9.05;100.00;102856.75;2614115;36;20066;-62
2021/12/15 05:52:00;;;;;;;122.23;48.83;;;;;;;9.08;100.00;102859.31;2613918;31;20121;-62
2021/12/15 05:54:29;;;;;;;118.93;48.93;;;;;;;9.07;100.00;102854.88;2614746;31;20280;-62
2021/12/15 05:56:58;;;;;;;115.00;45.93;;;;;;;9.05;100.00;102856.75;2615191;31;20486;-62
2021/12/15 05:59:27;;;;;;;125.28;47.70;;;;;;;9.08;100.00;102856.63;2615204;36;20034;-62
2021/12/15 06:01:56;;;;;;;120.78;47.22;;;;;;;9.06;100.00;102850.44;2612871;54;20122;-62
2021/12/15 06:04:27;;;;;;;119.18;49.53;;;;;;;9.07;100.00;102854.03;2613732;36;20163;-62
2021/12/15 06:06:55;;;;;;;124.38;47.78;;;;;;;9.07;100.00;102854.88;2613478;36;20141;-62
2021/12/15 06:09:23;;;;;;;117.60;44.88;;;;;;;9.07;100.00;102852.19;2613454;36;20181;-62
2021/12/15 06:11:53;;;;;;;119.47;48.17;;;;;;;9.04;100.00;102857.72;2612343;36;20130;-63
2021/12/15 06:14:27;;;;;;;123.45;45.25;;;;;;;9.04;100.00;102860.41;2613021;36;20435;-62
2021/12/15 06:16:58;;;;;;;121.78;44.58;;;;;;;9.03;100.00;102855.97;2613743;36;21043;-62
2021/12/15 06:19:30;;;;;;;115.90;44.97;;;;;;;9.03;100.00;102858.66;2613956;36;20034;-62
2021/12/15 06:21:58;;;;;;;121.30;45.85;;;;;;;9.06;100.00;102857.66;2613244;36;20125;-62
2021/12/15 06:24:27;;;;;;;122.63;45.88;;;;;;;9.07;100.00;102862.94;2613797;31;20585;-63
2021/12/15 06:26:57;;;;;;;113.63;45.53;;;;;;;9.15;100.00;102857.19;2613778;36;20440;-63
2021/12/15 06:29:25;;;;;;;122.03;46.50;;;;;;;9.15;100.00;102859.00;2613762;36;20053;-62
2021/12/15 06:31:54;;;;;;;123.07;47.22;;;;;;;9.17;100.00;102857.09;2613362;36;20901;-62
2021/12/15 06:34:22;;;;;;;118.32;46.55;;;;;;;9.09;100.00;102862.88;2613396;36;20022;-62
2021/12/15 06:36:53;;;;;;;123.93;46.88;;;;;;;9.17;100.00;102868.72;2613169;36;20522;-62
2021/12/15 06:39:21;;;;;;;124.28;45.95;;;;;;;9.19;100.00;102866.81;2613498;36;20435;-62
2021/12/15 06:41:49;;;;;;;128.57;46.65;;;;;;;9.18;100.00;102878.50;2613519;36;20031;-62
2021/12/15 06:44:18;;;;;;;124.57;46.47;;;;;;;9.17;100.00;102870.53;2614659;36;20126;-62
2021/12/15 06:47:15;;;;;;;129.35;49.13;;;;;;;9.12;100.00;102879.69;2613917;36;20089;-62
2021/12/15 07:00:31;;;;;;;126.53;46.45;;;;;;;9.15;100.00;102878.66;2614696;36;21434;-62
2021/12/15 07:03:01;;;;;;;130.30;49.38;;;;;;;9.16;100.00;102885.78;2615153;36;20045;-62
2021/12/15 07:05:31;;;;;;;139.27;49.28;;;;;;;9.15;100.00;102885.88;2614483;36;20523;-62
2021/12/15 07:08:04;;;;;;;127.22;47.50;;;;;;;9.15;100.00;102886.72;2614916;36;20163;-62
2021/12/15 07:10:37;;;;;;;124.03;45.92;;;;;;;9.18;100.00;102883.03;2614795;36;20575;-62
2021/12/15 07:13:06;;;;;;;126.20;45.75;;;;;;;9.17;100.00;102889.34;2614007;36;20026;-62
2021/12/15 07:15:36;;;;;;;122.95;46.20;;;;;;;9.20;100.00;102887.38;2613893;36;20121;-63
2021/12/15 07:18:08;;;;;;;122.45;44.90;;;;;;;9.18;100.00;102888.41;2613426;36;20062;-62
2021/12/15 07:20:44;;;;;;;123.50;47.92;;;;;;;9.21;100.00;102893.63;2613183;36;20057;-62
2021/12/15 07:23:17;;;;;;;127.18;47.05;;;;;;;9.22;100.00;102893.53;2614102;36;20574;-63
2021/12/15 07:25:47;;;;;;;129.88;47.17;;;;;;;9.22;100.00;102890.00;2614874;36;20027;-62
2021/12/15 07:28:16;;;;;;;120.97;45.70;;;;;;;9.22;100.00;102890.00;2613035;36;20037;-63
2021/12/15 07:30:45;;;;;;;128.57;47.22;;;;;;;9.27;100.00;102898.69;2613931;31;20122;-62
2021/12/15 07:33:14;;;;;;;127.90;45.25;;;;;;;9.23;100.00;102897.09;2613731;31;20162;-63
2021/12/15 07:35:43;;;;;;;119.35;44.65;;;;;;;9.23;100.00;102899.78;2614189;36;20035;-62
2021/12/15 07:38:14;;;;;;;128.82;46.95;;;;;;;9.23;100.00;102903.34;2614769;36;20558;-63
2021/12/15 07:40:45;;;;;;;127.47;45.00;;;;;;;9.20;100.00;102897.25;2613571;36;20500;-62
2021/12/15 07:43:23;;;;;;;107.88;42.33;;;;;;;9.24;100.00;102907.75;2614322;36;20133;-62
2021/12/15 07:45:55;;;;;;;116.60;42.43;;;;;;;9.24;100.00;102905.06;2613550;31;20531;-61
2021/12/15 07:48:26;;;;;;;129.98;45.03;;;;;;;9.21;100.00;102909.75;2613690;36;22674;-63
2021/12/15 07:50:58;;;;;;;127.78;44.65;;;;;;;9.21;100.00;102909.75;2608049;36;20673;-62
2021/12/15 07:53:27;;;;;;;132.77;47.30;;;;;;;9.23;100.00;102908.72;2612505;31;20540;-62
2021/12/15 07:55:58;;;;;;;133.65;47.00;;;;;;;9.23;100.00;102902.47;2612606;36;20057;-63
2021/12/15 07:58:28;;;;;;;128.93;46.33;;;;;;;9.33;100.00;102906.41;2612248;31;20131;-62
2021/12/15 08:00:59;;;;;;;126.05;45.28;;;;;;;9.27;100.00;102917.47;2612613;36;20058;-61
2021/12/15 08:03:28;;;;;;;133.70;47.35;;;;;;;9.28;100.00;102916.53;2613788;36;20042;-63
2021/12/15 08:05:57;;;;;;;126.95;44.65;;;;;;;9.28;100.00;102913.84;2613054;36;20130;-63
2021/12/15 08:08:25;;;;;;;128.23;46.95;;;;;;;9.30;100.00;102914.63;2611889;36;20129;-62
2021/12/15 08:10:56;;;;;;;115.85;44.85;;;;;;;9.38;100.00;102912.44;2612146;31;20162;-62
2021/12/15 08:13:30;;;;;;;117.53;44.53;;;;;;;9.37;100.00;102908.00;2613254;36;20038;-62
2021/12/15 08:15:58;;;;;;;125.85;43.35;;;;;;;9.38;100.00;102911.56;2613737;36;20552;-62
2021/12/15 08:18:27;;;;;;;119.68;41.65;;;;;;;9.37;100.00;102916.06;2612145;36;20125;-62
2021/12/15 08:20:56;;;;;;;125.13;43.67;;;;;;;9.34;100.00;102918.91;2613240;36;20126;-62
2021/12/15 08:23:25;;;;;;;114.78;42.90;;;;;;;9.37;100.00;102924.13;2612648;36;20166;-62
2021/12/15 08:25:54;;;;;;;116.25;42.03;;;;;;;9.40;100.00;102923.97;2613539;36;20090;-62
2021/12/15 08:28:22;;;;;;;116.93;42.15;;;;;;;9.40;100.00;102925.81;2612974;36;20065;-62
2021/12/15 08:30:54;;;;;;;125.68;43.60;;;;;;;9.42;100.00;102923.91;2613248;36;20042;-62
2021/12/15 08:33:25;;;;;;;109.45;39.53;;;;;;;9.44;100.00;102928.25;2613084;36;20086;-62
2021/12/15 08:35:58;;;;;;;110.97;42.47;;;;;;;9.41;100.00;102925.72;2613709;36;20114;-61
2021/12/15 08:38:27;;;;;;;114.15;41.70;;;;;;;9.40;100.00;102925.81;2612839;31;20030;-62
2021/12/15 08:40:55;;;;;;;;;;;;;;;9.38;100.00;102925.88;2613458;31;20042;-61
2021/12/15 08:43:25;;;;;;;110.47;40.07;;;;;;;9.41;100.00;102927.56;2613628;36;20059;-61
2021/12/15 08:45:59;;;;;;;124.00;44.17;;;;;;;9.42;100.00;102929.28;2612915;36;20386;-61
2021/12/15 08:48:28;;;;;;;110.60;40.20;;;;;;;9.43;100.00;102926.50;2613169;36;20137;-63
2021/12/15 08:50:57;;;;;;;113.63;40.25;;;;;;;9.45;100.00;102934.50;2612982;36;20062;-61
2021/12/15 08:53:25;;;;;;;113.93;41.05;;;;;;;9.44;100.00;102922.88;2613126;31;20153;-61
2021/12/15 08:55:54;;;;;;;107.90;40.53;;;;;;;9.44;100.00;102930.09;2612988;36;20114;-61
2021/12/15 08:58:24;;;;;;;119.20;40.70;;;;;;;9.45;100.00;102926.44;2612921;36;20654;-61
2021/12/15 09:00:58;;;;;;;119.95;42.00;;;;;;;9.47;100.00;102920.03;2613627;36;20154;-62
2021/12/15 09:03:28;;;;;;;112.70;41.25;;;;;;;9.54;100.00;102925.97;2612176;36;20095;-63
2021/12/15 09:05:59;;;;;;;115.63;42.67;;;;;;;9.51;100.00;102925.25;2611542;36;20034;-63
2021/12/15 09:08:29;;;;;;;117.28;40.63;;;;;;;9.52;100.00;102924.31;2612439;31;20118;-62
2021/12/15 09:10:59;;;;;;;108.05;41.70;;;;;;;9.53;100.00;102923.38;2613358;36;20034;-63
2021/12/15 09:13:30;;;;;;;100.93;39.58;;;;;;;9.55;100.00;102929.53;2613049;36;20114;-63
2021/12/15 09:16:05;;;;;;;107.97;41.35;;;;;;;9.55;100.00;102926.84;2613009;36;20045;-61
2021/12/15 09:18:33;;;;;;;104.50;40.22;;;;;;;9.57;100.00;102933.00;2612910;36;20611;-61
2021/12/15 09:21:02;;;;;;;108.68;41.47;;;;;;;9.55;100.00;102927.69;2612523;36;20084;-61
2021/12/15 09:23:30;;;;;;;92.15;37.20;;;;;;;9.56;100.00;102939.34;2613370;36;20531;-61
2021/12/15 09:26:00;;;;;;;99.18;39.17;;;;;;;9.61;100.00;102937.28;2613442;36;20182;-61
2021/12/15 09:28:30;;;;;;;111.82;39.30;;;;;;;9.58;100.00;102940.13;2612943;36;20158;-61
2021/12/15 09:31:02;;;;;;;101.43;38.22;;;;;;;9.61;100.00;102953.41;2613027;36;20069;-61
2021/12/15 09:33:32;;;;;;;102.13;38.85;;;;;;;9.66;100.00;102956.75;2612864;36;20038;-62
2021/12/15 09:36:02;;;;;;;101.68;37.97;;;;;;;9.69;100.00;102959.28;2612657;36;20114;-61
2021/12/15 09:38:31;;;;;;;91.10;36.17;;;;;;;9.71;100.00;102951.13;2612435;36;20139;-61
2021/12/15 09:41:02;;;;;;;98.20;36.90;;;;;;;9.72;100.00;102959.13;2614330;36;20199;-63
2021/12/15 09:43:32;;;;;;;93.32;37.90;;;;;;;9.78;100.00;102964.16;2613744;36;20306;-62
2021/12/15 09:46:13;;;;;;;94.85;38.47;;;;;;;9.75;100.00;102969.72;2614254;36;21096;-61
2021/12/15 09:57:16;;;;;;;89.03;36.35;;;;;;;9.86;100.00;102971.84;2612715;36;20041;-62
2021/12/15 10:02:41;;;;;;;84.68;36.10;;;;;;;9.98;100.00;102976.59;2612926;36;20042;-62
2021/12/15 10:05:28;;;;;;;85.47;34.17;;;;;;;9.99;100.00;102972.06;2612538;31;20038;-62
2021/12/15 10:11:10;;;;;;;79.97;34.85;;;;;;;9.95;100.00;102982.13;2612985;36;20042;-62
2021/12/15 10:19:22;;;;;;;74.85;32.25;;;;;;;10.00;100.00;102984.59;2613509;36;20058;-63
2021/12/15 10:22:09;;;;;;;72.28;34.28;;;;;;;10.08;100.00;102982.34;2612832;36;20054;-61
2021/12/15 10:24:45;;;;;;;70.78;33.05;;;;;;;10.16;100.00;102974.75;2613127;36;20035;-62
2021/12/15 10:27:14;;;;;;;74.35;34.25;;;;;;;10.17;100.00;102975.59;2613767;36;20061;-63
2021/12/15 10:30:07;;;;;;;68.40;33.55;;;;;;;10.27;100.00;102981.38;2613179;36;20182;-62
2021/12/15 10:32:39;;;;;;;74.35;33.35;;;;;;;10.27;100.00;102982.25;2612741;36;20130;-63
2021/12/15 10:35:13;;;;;;;72.97;33.17;;;;;;;10.31;100.00;102982.97;2612717;31;20540;-63
2021/12/15 10:37:42;;;;;;;73.22;32.10;;;;;;;10.21;100.00;102984.41;2613491;36;20143;-63
2021/12/15 10:40:16;;;;;;;63.40;30.40;;;;;;;10.26;100.00;102982.31;2613425;36;20034;-64
2021/12/15 10:42:45;;;;;;;63.83;29.85;;;;;;;10.28;100.00;102977.75;2614149;36;20138;-63
2021/12/15 10:45:15;;;;;;;;;;;;;;;10.21;100.00;102979.03;2613833;36;20149;-63
2021/12/15 10:47:45;;;;;;;55.28;27.45;;;;;;;10.23;100.00;102974.41;2613587;36;20033;-63
2021/12/15 10:50:19;;;;;;;51.80;27.45;;;;;;;10.27;100.00;102976.84;2612995;31;20497;-63
2021/12/15 10:52:59;;;;;;;55.83;26.35;;;;;;;10.32;100.00;102979.28;2613435;36;20177;-63
2021/12/15 10:55:34;;;;;;;54.85;27.38;;;;;;;10.38;100.00;102978.13;2613921;36;20531;-63
2021/12/15 10:58:02;;;;;;;52.72;25.80;;;;;;;10.36;100.00;102986.28;2613645;36;20202;-63
2021/12/15 11:00:38;;;;;;;47.03;25.00;;;;;;;10.33;100.00;102978.34;2613312;36;20122;-62
2021/12/15 11:03:14;;;;;;;41.30;21.73;;;;;;;10.41;100.00;102967.19;2612823;36;20114;-62
2021/12/15 11:05:45;;;;;;;43.88;22.13;;;;;;;10.51;100.00;102979.22;2613262;36;20172;-62
2021/12/15 11:08:21;;;;;;;42.33;21.48;;;;;;;10.46;100.00;102975.91;2613092;36;20189;-62
2021/12/15 11:10:51;;;;;;;42.85;21.48;;;;;;;10.56;100.00;102976.28;2613280;31;20122;-62
2021/12/15 11:13:19;;;;;;;37.42;21.55;;;;;;;10.52;100.00;102976.44;2613812;36;20057;-62
2021/12/15 11:15:50;;;;;;;39.25;20.60;;;;;;;10.55;100.00;102979.94;2613219;36;20145;-63
2021/12/15 11:18:21;;;;;;;36.42;20.02;;;;;;;10.57;100.00;102975.31;2611759;36;20129;-63
2021/12/15 11:20:55;;;;;;;31.85;18.45;;;;;;;10.61;100.00;102980.44;2612624;36;20133;-63
2021/12/15 11:23:24;;;;;;;30.40;17.15;;;;;;;10.69;100.00;102969.28;2611925;36;20034;-62
2021/12/15 11:25:55;;;;;;;28.70;15.45;;;;;;;10.72;100.00;102971.78;2612608;36;20034;-62
2021/12/15 11:28:27;;;;;;;26.25;14.82;;;;;;;10.77;100.00;102968.84;2613498;36;20038;-62
2021/12/15 11:30:59;;;;;;;31.08;15.02;;;;;;;10.76;100.00;102967.97;2612794;36;20121;-62
2021/12/15 11:33:30;;;;;;;28.55;15.23;;;;;;;10.75;100.00;102965.34;2613645;36;20122;-62
2021/12/15 11:36:04;;;;;;;27.60;13.52;;;;;;;10.80;100.00;102963.28;2612552;36;20045;-62
2021/12/15 11:38:35;;;;;;;23.15;12.50;;;;;;;10.72;100.00;102969.09;2611705;31;20030;-63
2021/12/15 11:41:10;;;;;;;25.08;12.25;;;;;;;10.67;100.00;102961.28;2612291;36;20220;-63
2021/12/15 11:43:46;;;;;;;26.40;13.13;;;;;;;10.72;100.00;102963.72;2610377;36;20661;-62
2021/12/15 11:46:28;;;;;;;21.33;12.57;;;;;;;10.75;100.00;102957.25;2612006;36;20122;-63
2021/12/15 11:49:00;;;;;;;28.38;13.43;;;;;;;10.75;100.00;102965.34;2613835;36;20023;-62
2021/12/15 11:51:38;;;;;;;23.48;13.85;;;;;;;10.63;100.00;102956.13;2612540;36;20073;-62
2021/12/15 11:54:16;;;;;;;27.23;13.43;;;;;;;10.55;100.00;102956.56;2613619;36;20038;-61
2021/12/15 11:56:45;;;;;;;26.60;13.52;;;;;;;10.59;100.00;102960.81;2614087;36;20153;-62
2021/12/15 11:59:21;;;;;;;26.08;13.82;;;;;;;10.68;100.00;102959.44;2612684;36;20126;-62
2021/12/15 12:01:59;;;;;;;26.90;13.52;;;;;;;10.68;100.00;102962.13;2613339;36;20069;-63
2021/12/15 12:04:37;;;;;;;22.90;13.32;;;;;;;10.79;100.00;102958.84;2613378;36;20034;-63
2021/12/15 12:07:20;;;;;;;19.63;11.13;;;;;;;10.76;100.00;102948.25;2613865;54;20126;31
2021/12/15 12:09:52;;;;;;;18.25;10.85;;;;;;;10.74;100.00;102945.63;2613154;31;20057;-62
2021/12/15 12:12:23;;;;;;;22.23;11.68;;;;;;;10.72;100.00;102943.97;2612156;31;20038;-62
2021/12/15 12:14:51;;;;;;;18.08;10.65;;;;;;;10.66;100.00;102947.91;2611732;31;20039;-62
2021/12/15 12:17:22;;;;;;;19.13;10.50;;;;;;;10.66;100.00;102939.81;2611257;36;20035;-63
2021/12/15 12:19:57;;;;;;;21.90;9.52;;;;;;;10.66;100.00;102945.22;2612306;36;20130;-62
2021/12/15 12:22:30;;;;;;;15.25;9.93;;;;;;;10.69;100.00;102945.03;2611919;36;20035;-62
2021/12/15 12:25:01;;;;;;;14.07;7.53;;;;;;;10.63;100.00;102939.97;2613179;36;20122;-63
2021/12/15 12:27:32;;;;;;;17.58;7.55;;;;;;;10.68;100.00;102932.50;2612134;36;20133;-63
2021/12/15 12:30:04;;;;;;;15.02;6.95;;;;;;;10.62;100.00;102935.56;2613332;36;20033;-63
2021/12/15 12:32:32;;;;;;;11.52;6.20;;;;;;;10.60;100.00;102930.25;2612567;36;20041;-63
2021/12/15 12:35:02;;;;;;;9.63;5.43;;;;;;;10.61;100.00;102931.97;2612780;31;20110;-62
2021/12/15 12:37:34;;;;;;;10.63;5.28;;;;;;;10.63;100.00;102935.47;2612798;36;20031;-63
2021/12/15 12:40:08;;;;;;;11.30;4.47;;;;;;;10.61;100.00;102936.50;2613841;36;20523;-63
2021/12/15 12:42:40;;;;;;;11.70;4.85;;;;;;;10.60;100.00;102940.13;2613020;36;20587;-63
2021/12/15 12:45:12;;;;;;;9.85;5.00;;;;;;;10.62;100.00;102947.19;2612937;36;20064;-62
2021/12/15 12:47:48;;;;;;;14.13;4.05;;;;;;;10.57;100.00;102943.00;2613203;31;20027;-63
2021/12/15 12:50:40;;;;;;;9.63;3.17;;;;;;;10.50;100.00;102940.66;2612211;36;20038;-63
2021/12/15 13:01:19;;;;;;;6.70;3.17;;;;;;;10.45;100.00;102947.25;2612727;36;20033;-63
2021/12/15 13:03:52;;;;;;;5.38;3.15;;;;;;;10.36;100.00;102936.97;2613380;36;20553;-62
2021/12/15 13:06:23;;;;;;;6.70;3.03;;;;;;;10.33;100.00;102941.59;2612380;36;20034;-63
2021/12/15 13:08:56;;;;;;;7.30;3.08;;;;;;;10.34;100.00;102945.16;2613720;36;20167;-63
2021/12/15 13:11:34;;;;;;;8.50;3.33;;;;;;;10.36;100.00;102945.91;2612473;36;21626;-71
2021/12/15 13:14:08;;;;;;;7.72;3.42;;;;;;;10.42;100.00;102947.41;2614084;36;20124;-63
2021/12/15 13:16:44;;;;;;;6.28;2.72;;;;;;;10.28;100.00;102940.94;2614105;36;20034;-62
2021/12/15 13:19:24;;;;;;;3.95;2.65;;;;;;;10.36;100.00;102942.38;2614545;36;20153;-70